KBOW

Bartow Municipal Airport

Bartow, Florida, USA
METAR KBOW 212135Z AUTO 32008G13KT 10SM CLR 30/23 A2992 RMK AO2 LTG DSNT SE
Observed Flight Rules
Jun-21 @ 21:35 UTC (32 minutes ago) Visual Flight Rules
Wind Visibility Clouds
320° at 8 knots
 Gusting to 13 knots
10 miles
  • Clear skies
Temperatures Readings
Current 30°C / 86°F
Dewpoint 23°C / 73°F
Humidity 66%
Altimeter 29.92" Hg
Pressure 1013 hPa
Elevation 39
METAR KBOW 212135Z AUTO 32008G13KT 10SM CLR 30/23 A2992 RMK AO2 LTG DSNT SE
Observed Flight Rules
Jun-21 @ 21:35 UTC
(32 minutes ago)
VFR
Wind Visibility
320° at 8 knots
 Gusting to 13 knots
10 miles
Clouds
  • Clear skies
Temperature Dewpoint
30°C / 86°F 23°C / 73°F
Humidity Altimeter Pressure
66% 29.92" Hg 1013 hPa